x

Buoy B01 - Western Maine Shelf (44030) Wave Buoy

4:04 - Sun 29th Mar 2015 All times are EDT. -4 hours from GMT.

  • Sig Wave height 6.2ft
  • Peak Period 11s
  • Wind
    18mph, 22mph gusts
  • Sea Temp 37°f
  • Air Temp 29°f
  • Sea Pressure 1016.8mb
  • Buoy B01 - Western Maine Shelf
  • Buoy B01 - Western Maine Shelf

More Historic Weather Station data

Upgrade to MSW Pro to gain access to the past 30 days of data for over 8000 Wavebouys and Weather Stations around the globe.

Join Pro

Comparision Forecast

View Surf forecast
   
dim. 03/29 4:04 6ft 11s 18 22 mph 1016.8mb 37f 29f
3:04 5.5ft 11s 18 22 mph 1016.4mb 37f 30f
2:04 6ft 11s 18 25 mph 1016mb 37f 30f
1:04 6ft 11s 18 20 mph 1015.4mb 37f 32f
12:04 5.5ft 11s 18 22 mph 1014.9mb 37f 33f
sam. 03/28 11:04 5.5ft 11s 18 20 mph 1013.8mb 37f 35f
10:04 4.5ft 11s 16 20 mph 1012.9mb 37f 36f
9:04 5ft 11s 11 16 mph 1011.7mb 37f 35f
8:04 6ft 11s 7 9 mph 1010.6mb 37f 34f
7:04 6ft 8s 2 4 mph 1009.3mb 37f 33f
6:04  -   -  11 13 mph 1008.2mb 37f 34f
5:04 7ft 11s 16 20 mph 1007.2mb 37f 33f
4:04 6ft 5s 22 27 mph 1007mb 37f 32f
3:04 7ft 11s 25 29 mph 1007mb 37f 32f
2:04 7ft 11s 22 25 mph 1006.9mb 37f 32f
1:04 7.5ft 11s 20 25 mph 1007mb 37f 31f
12:04 7ft 11s 22 25 mph 1007.7mb 37f 31f
11:04 8.5ft 11s 25 29 mph 1007.6mb 37f 31f
10:04 8ft 11s 25 27 mph 1007.4mb 37f 31f
9:04 7.5ft 11s 22 27 mph 1007.2mb 37f 34f
8:04 6.5ft 11s 22 27 mph 1006.7mb 37f 36f
7:04 6ft 11s 22 27 mph 1005.7mb 37f 36f
6:04 6ft 11s 25 29 mph 1005.3mb 37f 37f
5:04  -   -  20 25 mph 1005.4mb 37f 38f
4:04 5ft 11s 13 16 mph 1005.6mb 38f 38f
3:04 4.5ft 11s 13 16 mph 1005.9mb 38f 38f
2:04 4ft 11s 13 16 mph 1006.4mb 38f 39f
1:04 4.5ft 11s 11 13 mph 1006.5mb 38f 38f
12:04 5ft 11s 9 11 mph 1006.4mb 38f 39f
ven. 03/27 11:04 4.5ft 11s 4 7 mph 1006.3mb 38f 38f
10:04 4ft 11s 4 7 mph 1005.8mb 38f 38f
9:04 4.5ft 11s 4 7 mph 1005.9mb 38f 39f
8:04 4ft 11s 4 7 mph 1005.3mb 38f 38f
7:04 3.5ft 11s 7 9 mph 1004.8mb 38f 39f
6:04 3ft 11s 7
mph
1004.2mb 38f 39f
5:04 3.5ft 11s 7
mph
1004.1mb 38f 39f
4:04 3.5ft 11s 7
mph
1003.9mb 38f 39f
3:04 3.5ft 8s 4
mph
1004.3mb 38f 39f
2:04 3.5ft 8s 2
mph
1003.7mb 38f 39f
1:04 4ft 8s 2
mph
1004.9mb 38f 39f
12:04 4ft 8s 4
mph
1005.1mb 38f 38f
11:04 3.5ft 8s 7 9 mph 1005.5mb 37f 37f
10:04 3.5ft 8s 7 9 mph 1005mb 37f 38f
9:04 3.5ft 8s 11 13 mph 1005.5mb 37f 38f
8:04  -   -  9 11 mph 1005.4mb 37f 38f
7:04 4.5ft 8s 4 7 mph 1004.6mb 37f 38f
6:04 4.5ft 8s 4 7 mph 1003.8mb 37f 38f
5:04 5ft 8s 9 11 mph 1003.3mb 37f 38f
4:04 4.5ft 8s 7 9 mph 1002.7mb 37f 38f
3:04 4ft 8s 4 7 mph 1002.6mb 37f 38f
2:04 3.5ft 8s 7
mph
1003mb 37f 38f
1:04 3ft 6s 13 16 mph 1002.4mb 38f 39f
12:04 2.5ft 5s 9
mph
1003.4mb 38f 39f
jeu. 03/26 11:04 2.5ft 6s 9
mph
1003.5mb 38f 39f
10:04 2.5ft 5s 11 13 mph 1004.4mb 38f 39f
9:04 2.5ft 6s 4
mph
1003.3mb 38f 39f
8:04 2.5ft 5s 4
mph
1002.8mb 38f 40f
7:04 2.5ft 5s 2
mph
1003mb 38f 41f
6:04 2.5ft 6s 7
mph
1003mb 38f 40f
5:04 2.5ft 5s 4
mph
1003.1mb 38f 39f
4:04 2.5ft 6s 7 11 mph 1005.2mb 38f 40f
3:04 2.5ft 5s 9 11 mph 1004.4mb 38f 40f
2:04 3ft 5s 7
mph
1006.1mb 38f 40f
1:04 3ft 6s 7 9 mph 1007.7mb 38f 40f
12:04 3ft 5s 9 11 mph 1009.7mb 37f 40f
11:04 3ft 6s 13
mph
1010.7mb 37f 40f
10:04 3ft 5s 9 11 mph 1011.8mb 37f 40f
9:04 3ft 6s 11 16 mph 1012.1mb 37f 39f
8:04 3.5ft 5s 9
mph
1012.1mb 37f 38f
7:04 3.5ft 5s 11
mph
1012.5mb 37f 38f
6:04 3.5ft 5s 11 13 mph 1012.7mb 37f 37f
5:04 3.5ft 5s 7 9 mph 1013.6mb 37f 37f
4:04 3.5ft 6s 11 13 mph 1014.3mb 37f 37f
3:04 3.5ft 5s 16
mph
1015.6mb 37f 37f
2:04 4.5ft 5s 16 18 mph 1016.9mb 37f 37f
1:04 4.5ft 5s 20 22 mph 1018.1mb 37f 37f
12:04 4.5ft 5s 22 27 mph 1019.2mb 37f 37f
mer. 03/25 11:04 4.5ft 5s 20 25 mph 1020.2mb 37f 37f
10:04 4.5ft 5s 20 25 mph 1021.3mb 37f 37f
9:04 4ft 5s 25 29 mph 1022mb 37f 38f
8:04 4ft 5s 20 25 mph 1021.5mb 37f 39f
7:04 3.5ft 4s 20 25 mph 1021.8mb 37f 39f
6:04 2.5ft 4s 20 25 mph 1022.6mb 37f 39f
5:04 2ft 3s 16 20 mph 1023.5mb 37f 38f
4:04 1.6ft 3s 16 18 mph 1024.2mb 37f 38f
3:04 1.3ft 2s 13 16 mph 1025.2mb 38f 37f
2:04 1ft 4s 11 13 mph 1026.1mb 38f 37f
1:04 1ft 8s 9
mph
1027.5mb 38f 36f
12:04 0.7ft  -  4 7 mph 1028.1mb 39f 35f
11:04 1ft 4s 2
mph
1028.8mb 37f 35f
10:04 1ft 4s 2 4 mph 1028.3mb 37f 35f